sensor_id;sensor_type;location;lat;lon;timestamp;P1;durP1;ratioP1;P2;durP2;ratioP2
66487;SDS011;53304;54.550;18.526;2023-06-22T00:02:04;6.90;;;3.97;;
66487;SDS011;53304;54.550;18.526;2023-06-22T00:04:30;7.75;;;3.88;;
66487;SDS011;53304;54.550;18.526;2023-06-22T00:06:55;8.88;;;4.20;;
66487;SDS011;53304;54.550;18.526;2023-06-22T00:09:21;9.30;;;4.10;;
66487;SDS011;53304;54.550;18.526;2023-06-22T00:11:51;7.50;;;4.10;;
66487;SDS011;53304;54.550;18.526;2023-06-22T00:14:17;6.03;;;3.75;;
66487;SDS011;53304;54.550;18.526;2023-06-22T00:16:42;6.70;;;3.78;;
66487;SDS011;53304;54.550;18.526;2023-06-22T00:19:14;6.68;;;3.60;;
66487;SDS011;53304;54.550;18.526;2023-06-22T00:21:44;6.68;;;3.92;;
66487;SDS011;53304;54.550;18.526;2023-06-22T00:24:14;8.63;;;4.15;;
66487;SDS011;53304;54.550;18.526;2023-06-22T00:26:43;8.25;;;3.88;;
66487;SDS011;53304;54.550;18.526;2023-06-22T00:29:10;5.50;;;3.60;;
66487;SDS011;53304;54.550;18.526;2023-06-22T00:31:36;6.28;;;3.72;;
66487;SDS011;53304;54.550;18.526;2023-06-22T00:34:04;7.25;;;3.80;;
66487;SDS011;53304;54.550;18.526;2023-06-22T00:36:33;7.43;;;3.88;;
66487;SDS011;53304;54.550;18.526;2023-06-22T00:38:59;8.40;;;3.90;;
66487;SDS011;53304;54.550;18.526;2023-06-22T00:41:24;8.10;;;4.22;;
66487;SDS011;53304;54.550;18.526;2023-06-22T00:43:53;9.32;;;4.00;;
66487;SDS011;53304;54.550;18.526;2023-06-22T00:46:19;7.80;;;3.95;;
66487;SDS011;53304;54.550;18.526;2023-06-22T00:48:44;7.97;;;3.67;;
66487;SDS011;53304;54.550;18.526;2023-06-22T00:51:10;7.07;;;4.00;;
66487;SDS011;53304;54.550;18.526;2023-06-22T00:53:35;6.82;;;4.00;;
66487;SDS011;53304;54.550;18.526;2023-06-22T00:56:02;9.43;;;4.40;;
66487;SDS011;53304;54.550;18.526;2023-06-22T00:58:28;6.25;;;3.55;;
66487;SDS011;53304;54.550;18.526;2023-06-22T01:03:52;7.90;;;4.53;;
66487;SDS011;53304;54.550;18.526;2023-06-22T01:06:25;8.55;;;3.97;;
66487;SDS011;53304;54.550;18.526;2023-06-22T01:09:07;6.57;;;3.83;;
66487;SDS011;53304;54.550;18.526;2023-06-22T01:11:52;7.75;;;3.88;;
66487;SDS011;53304;54.550;18.526;2023-06-22T01:14:24;7.28;;;3.80;;
66487;SDS011;53304;54.550;18.526;2023-06-22T01:17:05;7.13;;;4.18;;
66487;SDS011;53304;54.550;18.526;2023-06-22T01:22:15;7.07;;;3.97;;
66487;SDS011;53304;54.550;18.526;2023-06-22T01:30:25;8.70;;;3.90;;
66487;SDS011;53304;54.550;18.526;2023-06-22T01:32:55;8.23;;;3.72;;
66487;SDS011;53304;54.550;18.526;2023-06-22T01:35:24;9.07;;;3.83;;
66487;SDS011;53304;54.550;18.526;2023-06-22T01:37:54;6.82;;;4.15;;
66487;SDS011;53304;54.550;18.526;2023-06-22T01:40:20;7.75;;;3.70;;
66487;SDS011;53304;54.550;18.526;2023-06-22T01:42:48;7.90;;;3.70;;
66487;SDS011;53304;54.550;18.526;2023-06-22T01:45:15;9.45;;;4.25;;
66487;SDS011;53304;54.550;18.526;2023-06-22T01:47:40;8.52;;;4.32;;
66487;SDS011;53304;54.550;18.526;2023-06-22T01:50:06;7.38;;;3.90;;
66487;SDS011;53304;54.550;18.526;2023-06-22T01:52:34;8.18;;;3.92;;
66487;SDS011;53304;54.550;18.526;2023-06-22T01:55:00;6.82;;;3.95;;
66487;SDS011;53304;54.550;18.526;2023-06-22T01:57:29;6.28;;;4.03;;
66487;SDS011;53304;54.550;18.526;2023-06-22T02:02:32;9.30;;;4.05;;
66487;SDS011;53304;54.550;18.526;2023-06-22T02:05:02;8.27;;;4.13;;
66487;SDS011;53304;54.550;18.526;2023-06-22T02:07:34;6.90;;;4.10;;
66487;SDS011;53304;54.550;18.526;2023-06-22T02:10:04;9.40;;;4.40;;
66487;SDS011;53304;54.550;18.526;2023-06-22T02:12:32;7.30;;;4.43;;
66487;SDS011;53304;54.550;18.526;2023-06-22T02:14:58;6.47;;;4.03;;
66487;SDS011;53304;54.550;18.526;2023-06-22T02:17:26;8.52;;;4.15;;
66487;SDS011;53304;54.550;18.526;2023-06-22T02:19:51;9.60;;;4.10;;
66487;SDS011;53304;54.550;18.526;2023-06-22T02:22:17;8.70;;;4.55;;
66487;SDS011;53304;54.550;18.526;2023-06-22T02:24:45;7.70;;;4.40;;
66487;SDS011;53304;54.550;18.526;2023-06-22T02:27:13;7.38;;;4.50;;
66487;SDS011;53304;54.550;18.526;2023-06-22T02:29:41;7.75;;;4.53;;
66487;SDS011;53304;54.550;18.526;2023-06-22T02:32:11;8.45;;;4.68;;
66487;SDS011;53304;54.550;18.526;2023-06-22T02:34:40;7.93;;;4.22;;
66487;SDS011;53304;54.550;18.526;2023-06-22T02:37:05;9.48;;;4.97;;
66487;SDS011;53304;54.550;18.526;2023-06-22T02:39:33;8.23;;;4.60;;
66487;SDS011;53304;54.550;18.526;2023-06-22T02:41:58;9.73;;;4.70;;
66487;SDS011;53304;54.550;18.526;2023-06-22T02:44:24;8.80;;;4.70;;
66487;SDS011;53304;54.550;18.526;2023-06-22T02:46:49;9.23;;;4.93;;
66487;SDS011;53304;54.550;18.526;2023-06-22T02:49:15;9.35;;;4.90;;
66487;SDS011;53304;54.550;18.526;2023-06-22T02:51:44;10.77;;;4.90;;
66487;SDS011;53304;54.550;18.526;2023-06-22T02:54:11;9.82;;;5.15;;
66487;SDS011;53304;54.550;18.526;2023-06-22T02:56:36;8.23;;;4.72;;
66487;SDS011;53304;54.550;18.526;2023-06-22T02:59:02;9.77;;;5.05;;
66487;SDS011;53304;54.550;18.526;2023-06-22T03:01:30;10.13;;;5.00;;
66487;SDS011;53304;54.550;18.526;2023-06-22T03:04:05;9.38;;;5.30;;
66487;SDS011;53304;54.550;18.526;2023-06-22T03:06:33;9.15;;;5.10;;
66487;SDS011;53304;54.550;18.526;2023-06-22T03:09:02;10.00;;;4.65;;
66487;SDS011;53304;54.550;18.526;2023-06-22T03:11:29;11.63;;;4.85;;
66487;SDS011;53304;54.550;18.526;2023-06-22T03:14:00;8.82;;;4.82;;
66487;SDS011;53304;54.550;18.526;2023-06-22T03:16:26;8.55;;;4.93;;
66487;SDS011;53304;54.550;18.526;2023-06-22T03:18:54;13.68;;;4.93;;
66487;SDS011;53304;54.550;18.526;2023-06-22T03:21:22;8.48;;;5.15;;
66487;SDS011;53304;54.550;18.526;2023-06-22T03:23:48;8.85;;;4.70;;
66487;SDS011;53304;54.550;18.526;2023-06-22T03:26:19;10.10;;;4.90;;
66487;SDS011;53304;54.550;18.526;2023-06-22T03:28:44;7.85;;;4.93;;
66487;SDS011;53304;54.550;18.526;2023-06-22T03:31:10;7.53;;;4.63;;
66487;SDS011;53304;54.550;18.526;2023-06-22T03:33:35;9.27;;;5.03;;
66487;SDS011;53304;54.550;18.526;2023-06-22T03:36:03;8.95;;;5.03;;
66487;SDS011;53304;54.550;18.526;2023-06-22T03:38:29;8.45;;;4.47;;
66487;SDS011;53304;54.550;18.526;2023-06-22T03:40:57;7.80;;;4.68;;
66487;SDS011;53304;54.550;18.526;2023-06-22T03:43:25;8.93;;;4.70;;
66487;SDS011;53304;54.550;18.526;2023-06-22T03:45:52;9.05;;;4.78;;
66487;SDS011;53304;54.550;18.526;2023-06-22T03:48:20;8.60;;;5.32;;
66487;SDS011;53304;54.550;18.526;2023-06-22T03:50:48;9.07;;;4.85;;
66487;SDS011;53304;54.550;18.526;2023-06-22T03:53:16;8.50;;;4.55;;
66487;SDS011;53304;54.550;18.526;2023-06-22T03:55:50;10.30;;;4.97;;
66487;SDS011;53304;54.550;18.526;2023-06-22T03:58:16;10.98;;;4.82;;
66487;SDS011;53304;54.550;18.526;2023-06-22T04:00:44;9.38;;;4.20;;
66487;SDS011;53304;54.550;18.526;2023-06-22T04:03:15;8.60;;;5.00;;
66487;SDS011;53304;54.550;18.526;2023-06-22T04:05:41;9.23;;;4.80;;
66487;SDS011;53304;54.550;18.526;2023-06-22T04:08:06;10.23;;;5.22;;
66487;SDS011;53304;54.550;18.526;2023-06-22T04:10:32;11.40;;;5.30;;
66487;SDS011;53304;54.550;18.526;2023-06-22T04:12:57;9.88;;;5.25;;
66487;SDS011;53304;54.550;18.526;2023-06-22T04:15:25;8.85;;;4.32;;
66487;SDS011;53304;54.550;18.526;2023-06-22T04:17:50;9.13;;;4.25;;
66487;SDS011;53304;54.550;18.526;2023-06-22T04:20:16;7.65;;;4.45;;
66487;SDS011;53304;54.550;18.526;2023-06-22T04:22:41;10.23;;;4.75;;
66487;SDS011;53304;54.550;18.526;2023-06-22T04:25:11;7.63;;;4.20;;
66487;SDS011;53304;54.550;18.526;2023-06-22T04:27:37;9.05;;;4.72;;
66487;SDS011;53304;54.550;18.526;2023-06-22T04:30:05;9.32;;;4.35;;
66487;SDS011;53304;54.550;18.526;2023-06-22T04:32:32;8.23;;;4.35;;
66487;SDS011;53304;54.550;18.526;2023-06-22T04:34:57;9.50;;;4.55;;
66487;SDS011;53304;54.550;18.526;2023-06-22T04:37:27;8.57;;;4.72;;
66487;SDS011;53304;54.550;18.526;2023-06-22T04:39:57;8.30;;;4.38;;
66487;SDS011;53304;54.550;18.526;2023-06-22T04:42:24;8.20;;;4.65;;
66487;SDS011;53304;54.550;18.526;2023-06-22T04:44:51;11.10;;;4.60;;
66487;SDS011;53304;54.550;18.526;2023-06-22T04:47:19;8.55;;;4.45;;
66487;SDS011;53304;54.550;18.526;2023-06-22T04:49:45;7.82;;;4.13;;
66487;SDS011;53304;54.550;18.526;2023-06-22T04:52:11;8.52;;;4.30;;
66487;SDS011;53304;54.550;18.526;2023-06-22T04:54:45;7.03;;;4.40;;
66487;SDS011;53304;54.550;18.526;2023-06-22T04:57:15;6.68;;;3.80;;
66487;SDS011;53304;54.550;18.526;2023-06-22T04:59:45;8.10;;;3.60;;
66487;SDS011;53304;54.550;18.526;2023-06-22T05:02:10;7.50;;;3.85;;
66487;SDS011;53304;54.550;18.526;2023-06-22T05:04:36;6.68;;;3.58;;
66487;SDS011;53304;54.550;18.526;2023-06-22T05:07:03;7.22;;;3.38;;
66487;SDS011;53304;54.550;18.526;2023-06-22T05:09:29;9.32;;;3.13;;
66487;SDS011;53304;54.550;18.526;2023-06-22T05:11:55;6.65;;;3.28;;
66487;SDS011;53304;54.550;18.526;2023-06-22T05:14:24;6.10;;;2.95;;
66487;SDS011;53304;54.550;18.526;2023-06-22T05:16:50;7.70;;;3.55;;
66487;SDS011;53304;54.550;18.526;2023-06-22T05:19:17;6.10;;;3.42;;
66487;SDS011;53304;54.550;18.526;2023-06-22T05:21:45;14.98;;;3.40;;
66487;SDS011;53304;54.550;18.526;2023-06-22T05:24:16;9.68;;;3.83;;
66487;SDS011;53304;54.550;18.526;2023-06-22T05:26:43;6.63;;;3.15;;
66487;SDS011;53304;54.550;18.526;2023-06-22T05:29:08;8.60;;;3.38;;
66487;SDS011;53304;54.550;18.526;2023-06-22T05:31:41;8.40;;;3.05;;
66487;SDS011;53304;54.550;18.526;2023-06-22T05:34:06;5.75;;;2.70;;
66487;SDS011;53304;54.550;18.526;2023-06-22T05:36:37;8.57;;;2.90;;
66487;SDS011;53304;54.550;18.526;2023-06-22T05:39:10;5.50;;;2.80;;
66487;SDS011;53304;54.550;18.526;2023-06-22T05:41:41;6.90;;;2.78;;
66487;SDS011;53304;54.550;18.526;2023-06-22T05:44:08;6.95;;;3.00;;
66487;SDS011;53304;54.550;18.526;2023-06-22T05:46:36;9.57;;;2.88;;
66487;SDS011;53304;54.550;18.526;2023-06-22T05:49:03;7.45;;;2.80;;
66487;SDS011;53304;54.550;18.526;2023-06-22T05:51:31;7.45;;;2.80;;
66487;SDS011;53304;54.550;18.526;2023-06-22T05:53:59;7.55;;;2.63;;
66487;SDS011;53304;54.550;18.526;2023-06-22T05:56:31;5.25;;;2.80;;
66487;SDS011;53304;54.550;18.526;2023-06-22T05:58:59;7.20;;;2.50;;
66487;SDS011;53304;54.550;18.526;2023-06-22T06:01:24;4.53;;;2.50;;
66487;SDS011;53304;54.550;18.526;2023-06-22T06:03:51;4.72;;;2.60;;
66487;SDS011;53304;54.550;18.526;2023-06-22T06:06:20;4.55;;;2.50;;
66487;SDS011;53304;54.550;18.526;2023-06-22T06:08:46;3.58;;;2.08;;
66487;SDS011;53304;54.550;18.526;2023-06-22T06:11:11;5.00;;;2.35;;
66487;SDS011;53304;54.550;18.526;2023-06-22T06:13:37;5.30;;;2.65;;
66487;SDS011;53304;54.550;18.526;2023-06-22T06:16:02;4.70;;;2.30;;
66487;SDS011;53304;54.550;18.526;2023-06-22T06:18:30;3.88;;;2.28;;
66487;SDS011;53304;54.550;18.526;2023-06-22T06:20:56;4.72;;;2.03;;
66487;SDS011;53304;54.550;18.526;2023-06-22T06:23:21;4.13;;;2.15;;
66487;SDS011;53304;54.550;18.526;2023-06-22T06:25:51;3.83;;;2.17;;
66487;SDS011;53304;54.550;18.526;2023-06-22T06:28:17;4.63;;;2.05;;
66487;SDS011;53304;54.550;18.526;2023-06-22T06:30:42;4.68;;;2.00;;
66487;SDS011;53304;54.550;18.526;2023-06-22T06:33:08;5.78;;;2.38;;
66487;SDS011;53304;54.550;18.526;2023-06-22T06:35:34;4.45;;;1.90;;
66487;SDS011;53304;54.550;18.526;2023-06-22T06:38:02;5.43;;;1.85;;
66487;SDS011;53304;54.550;18.526;2023-06-22T06:40:30;5.93;;;2.20;;
66487;SDS011;53304;54.550;18.526;2023-06-22T06:42:58;4.57;;;2.30;;
66487;SDS011;53304;54.550;18.526;2023-06-22T06:45:23;6.97;;;2.58;;
66487;SDS011;53304;54.550;18.526;2023-06-22T06:47:50;9.45;;;2.85;;
66487;SDS011;53304;54.550;18.526;2023-06-22T06:50:19;9.05;;;2.67;;
66487;SDS011;53304;54.550;18.526;2023-06-22T06:52:45;5.28;;;2.03;;
66487;SDS011;53304;54.550;18.526;2023-06-22T06:55:10;5.72;;;2.17;;
66487;SDS011;53304;54.550;18.526;2023-06-22T06:57:41;6.25;;;2.10;;
66487;SDS011;53304;54.550;18.526;2023-06-22T07:00:13;5.18;;;2.22;;
66487;SDS011;53304;54.550;18.526;2023-06-22T07:02:40;12.43;;;3.70;;
66487;SDS011;53304;54.550;18.526;2023-06-22T07:05:07;12.98;;;2.35;;
66487;SDS011;53304;54.550;18.526;2023-06-22T07:07:33;6.00;;;2.30;;
66487;SDS011;53304;54.550;18.526;2023-06-22T07:09:59;7.93;;;2.40;;
66487;SDS011;53304;54.550;18.526;2023-06-22T07:12:27;7.47;;;2.30;;
66487;SDS011;53304;54.550;18.526;2023-06-22T07:15:00;5.40;;;2.28;;
66487;SDS011;53304;54.550;18.526;2023-06-22T07:17:29;5.05;;;1.92;;
66487;SDS011;53304;54.550;18.526;2023-06-22T07:19:54;4.53;;;1.98;;
66487;SDS011;53304;54.550;18.526;2023-06-22T07:22:25;5.03;;;2.22;;
66487;SDS011;53304;54.550;18.526;2023-06-22T07:24:52;6.22;;;2.33;;
66487;SDS011;53304;54.550;18.526;2023-06-22T07:27:18;6.53;;;2.10;;
66487;SDS011;53304;54.550;18.526;2023-06-22T07:29:46;6.43;;;2.20;;
66487;SDS011;53304;54.550;18.526;2023-06-22T07:32:13;3.75;;;1.73;;
66487;SDS011;53304;54.550;18.526;2023-06-22T07:34:41;6.47;;;2.38;;
66487;SDS011;53304;54.550;18.526;2023-06-22T07:37:09;4.28;;;2.20;;
66487;SDS011;53304;54.550;18.526;2023-06-22T07:39:34;5.38;;;2.10;;
66487;SDS011;53304;54.550;18.526;2023-06-22T07:42:02;4.53;;;2.05;;
66487;SDS011;53304;54.550;18.526;2023-06-22T07:44:28;4.03;;;1.95;;
66487;SDS011;53304;54.550;18.526;2023-06-22T07:46:53;6.13;;;2.17;;
66487;SDS011;53304;54.550;18.526;2023-06-22T07:49:19;5.93;;;2.10;;
66487;SDS011;53304;54.550;18.526;2023-06-22T07:51:47;3.70;;;1.90;;
66487;SDS011;53304;54.550;18.526;2023-06-22T07:54:14;4.38;;;1.88;;
66487;SDS011;53304;54.550;18.526;2023-06-22T07:56:42;4.57;;;1.92;;
66487;SDS011;53304;54.550;18.526;2023-06-22T07:59:12;4.70;;;2.20;;
66487;SDS011;53304;54.550;18.526;2023-06-22T08:01:38;4.90;;;2.10;;
66487;SDS011;53304;54.550;18.526;2023-06-22T08:04:03;6.13;;;2.03;;
66487;SDS011;53304;54.550;18.526;2023-06-22T08:06:31;5.40;;;2.05;;
66487;SDS011;53304;54.550;18.526;2023-06-22T08:08:59;3.85;;;1.90;;
66487;SDS011;53304;54.550;18.526;2023-06-22T08:11:24;4.70;;;2.10;;
66487;SDS011;53304;54.550;18.526;2023-06-22T08:13:50;5.50;;;2.22;;
66487;SDS011;53304;54.550;18.526;2023-06-22T08:16:16;5.45;;;2.20;;
66487;SDS011;53304;54.550;18.526;2023-06-22T08:18:47;3.28;;;1.83;;
66487;SDS011;53304;54.550;18.526;2023-06-22T08:21:12;3.15;;;1.65;;
66487;SDS011;53304;54.550;18.526;2023-06-22T08:23:37;4.47;;;2.10;;
66487;SDS011;53304;54.550;18.526;2023-06-22T08:26:05;4.28;;;1.70;;
66487;SDS011;53304;54.550;18.526;2023-06-22T08:28:30;5.35;;;1.75;;
66487;SDS011;53304;54.550;18.526;2023-06-22T08:30:56;3.53;;;2.00;;
66487;SDS011;53304;54.550;18.526;2023-06-22T08:33:24;4.45;;;2.15;;
66487;SDS011;53304;54.550;18.526;2023-06-22T08:35:55;3.85;;;2.00;;
66487;SDS011;53304;54.550;18.526;2023-06-22T08:38:23;3.70;;;1.70;;
66487;SDS011;53304;54.550;18.526;2023-06-22T08:40:51;4.75;;;2.10;;
66487;SDS011;53304;54.550;18.526;2023-06-22T08:43:19;5.18;;;2.00;;
66487;SDS011;53304;54.550;18.526;2023-06-22T08:45:45;4.50;;;2.03;;
66487;SDS011;53304;54.550;18.526;2023-06-22T08:48:15;3.25;;;1.83;;
66487;SDS011;53304;54.550;18.526;2023-06-22T08:50:43;4.00;;;2.00;;
66487;SDS011;53304;54.550;18.526;2023-06-22T08:53:08;2.47;;;1.77;;
66487;SDS011;53304;54.550;18.526;2023-06-22T08:55:33;3.75;;;2.05;;
66487;SDS011;53304;54.550;18.526;2023-06-22T08:57:59;4.20;;;1.90;;
66487;SDS011;53304;54.550;18.526;2023-06-22T09:00:24;4.43;;;2.17;;
66487;SDS011;53304;54.550;18.526;2023-06-22T09:02:59;4.68;;;1.85;;
66487;SDS011;53304;54.550;18.526;2023-06-22T09:05:25;5.05;;;2.20;;
66487;SDS011;53304;54.550;18.526;2023-06-22T09:07:52;4.25;;;1.80;;
66487;SDS011;53304;54.550;18.526;2023-06-22T09:10:21;4.65;;;1.88;;
66487;SDS011;53304;54.550;18.526;2023-06-22T09:12:46;4.95;;;2.20;;
66487;SDS011;53304;54.550;18.526;2023-06-22T09:15:11;5.30;;;2.17;;
66487;SDS011;53304;54.550;18.526;2023-06-22T09:17:40;3.08;;;1.83;;
66487;SDS011;53304;54.550;18.526;2023-06-22T09:20:11;4.72;;;1.85;;
66487;SDS011;53304;54.550;18.526;2023-06-22T09:22:36;3.97;;;1.90;;
66487;SDS011;53304;54.550;18.526;2023-06-22T09:25:04;5.53;;;2.00;;
66487;SDS011;53304;54.550;18.526;2023-06-22T09:27:32;3.30;;;1.83;;
66487;SDS011;53304;54.550;18.526;2023-06-22T09:30:00;4.50;;;1.92;;
66487;SDS011;53304;54.550;18.526;2023-06-22T09:32:25;5.43;;;1.95;;
66487;SDS011;53304;54.550;18.526;2023-06-22T09:34:53;4.07;;;1.98;;
66487;SDS011;53304;54.550;18.526;2023-06-22T09:37:18;5.20;;;2.20;;
66487;SDS011;53304;54.550;18.526;2023-06-22T09:39:46;4.15;;;2.00;;
66487;SDS011;53304;54.550;18.526;2023-06-22T09:42:14;4.05;;;2.15;;
66487;SDS011;53304;54.550;18.526;2023-06-22T09:44:44;5.35;;;1.90;;
66487;SDS011;53304;54.550;18.526;2023-06-22T09:47:12;2.72;;;1.70;;
66487;SDS011;53304;54.550;18.526;2023-06-22T09:49:40;3.97;;;2.08;;
66487;SDS011;53304;54.550;18.526;2023-06-22T09:52:05;4.07;;;2.03;;
66487;SDS011;53304;54.550;18.526;2023-06-22T09:54:31;4.38;;;1.90;;
66487;SDS011;53304;54.550;18.526;2023-06-22T09:56:56;6.95;;;2.20;;
66487;SDS011;53304;54.550;18.526;2023-06-22T09:59:22;4.45;;;1.70;;
66487;SDS011;53304;54.550;18.526;2023-06-22T10:01:47;3.65;;;2.10;;
66487;SDS011;53304;54.550;18.526;2023-06-22T10:04:17;5.75;;;2.10;;
66487;SDS011;53304;54.550;18.526;2023-06-22T10:06:43;4.32;;;2.00;;
66487;SDS011;53304;54.550;18.526;2023-06-22T10:09:08;4.18;;;1.92;;
66487;SDS011;53304;54.550;18.526;2023-06-22T10:11:39;4.65;;;1.90;;
66487;SDS011;53304;54.550;18.526;2023-06-22T10:14:04;5.47;;;2.10;;
66487;SDS011;53304;54.550;18.526;2023-06-22T10:16:36;7.32;;;2.17;;
66487;SDS011;53304;54.550;18.526;2023-06-22T10:21:29;4.47;;;1.93;;
66487;SDS011;53304;54.550;18.526;2023-06-22T10:23:54;7.38;;;2.22;;
66487;SDS011;53304;54.550;18.526;2023-06-22T10:26:20;4.13;;;2.10;;
66487;SDS011;53304;54.550;18.526;2023-06-22T10:28:46;5.05;;;2.00;;
66487;SDS011;53304;54.550;18.526;2023-06-22T10:31:19;3.00;;;1.90;;
66487;SDS011;53304;54.550;18.526;2023-06-22T10:33:48;4.68;;;2.20;;
66487;SDS011;53304;54.550;18.526;2023-06-22T10:36:18;5.55;;;2.50;;
66487;SDS011;53304;54.550;18.526;2023-06-22T10:38:49;5.40;;;2.10;;
66487;SDS011;53304;54.550;18.526;2023-06-22T10:41:14;5.40;;;2.75;;
66487;SDS011;53304;54.550;18.526;2023-06-22T10:43:40;6.68;;;2.13;;
66487;SDS011;53304;54.550;18.526;2023-06-22T10:46:09;5.70;;;2.15;;
66487;SDS011;53304;54.550;18.526;2023-06-22T10:48:42;4.03;;;1.70;;
66487;SDS011;53304;54.550;18.526;2023-06-22T10:51:09;6.38;;;2.20;;
66487;SDS011;53304;54.550;18.526;2023-06-22T10:53:37;4.22;;;2.15;;
66487;SDS011;53304;54.550;18.526;2023-06-22T10:56:06;4.28;;;2.10;;
66487;SDS011;53304;54.550;18.526;2023-06-22T10:58:31;3.67;;;2.00;;
66487;SDS011;53304;54.550;18.526;2023-06-22T11:00:59;3.80;;;2.03;;
66487;SDS011;53304;54.550;18.526;2023-06-22T11:03:27;6.25;;;2.25;;
66487;SDS011;53304;54.550;18.526;2023-06-22T11:05:52;5.63;;;2.40;;
66487;SDS011;53304;54.550;18.526;2023-06-22T11:08:20;3.63;;;2.10;;
66487;SDS011;53304;54.550;18.526;2023-06-22T11:10:45;3.97;;;2.10;;
66487;SDS011;53304;54.550;18.526;2023-06-22T11:13:13;5.10;;;2.00;;
66487;SDS011;53304;54.550;18.526;2023-06-22T11:15:39;5.90;;;2.10;;
66487;SDS011;53304;54.550;18.526;2023-06-22T11:18:04;4.63;;;1.85;;
66487;SDS011;53304;54.550;18.526;2023-06-22T11:20:32;4.68;;;2.15;;
66487;SDS011;53304;54.550;18.526;2023-06-22T11:23:06;3.75;;;2.10;;
66487;SDS011;53304;54.550;18.526;2023-06-22T11:25:32;7.80;;;2.90;;
66487;SDS011;53304;54.550;18.526;2023-06-22T11:28:01;4.70;;;2.17;;
66487;SDS011;53304;54.550;18.526;2023-06-22T11:30:27;3.92;;;1.85;;
66487;SDS011;53304;54.550;18.526;2023-06-22T11:32:56;4.55;;;2.15;;
66487;SDS011;53304;54.550;18.526;2023-06-22T11:35:26;5.72;;;2.10;;
66487;SDS011;53304;54.550;18.526;2023-06-22T11:37:54;5.85;;;2.25;;
66487;SDS011;53304;54.550;18.526;2023-06-22T11:40:23;3.83;;;1.90;;
66487;SDS011;53304;54.550;18.526;2023-06-22T11:42:48;5.05;;;2.00;;
66487;SDS011;53304;54.550;18.526;2023-06-22T11:45:14;3.30;;;1.95;;
66487;SDS011;53304;54.550;18.526;2023-06-22T11:47:39;3.90;;;1.90;;
66487;SDS011;53304;54.550;18.526;2023-06-22T11:50:07;3.30;;;1.90;;
66487;SDS011;53304;54.550;18.526;2023-06-22T11:52:35;4.63;;;2.40;;
66487;SDS011;53304;54.550;18.526;2023-06-22T11:55:01;4.47;;;2.20;;
66487;SDS011;53304;54.550;18.526;2023-06-22T11:57:28;4.30;;;1.85;;
66487;SDS011;53304;54.550;18.526;2023-06-22T11:59:54;4.78;;;2.20;;
66487;SDS011;53304;54.550;18.526;2023-06-22T12:02:22;4.28;;;2.17;;
66487;SDS011;53304;54.550;18.526;2023-06-22T12:04:47;6.40;;;1.98;;
66487;SDS011;53304;54.550;18.526;2023-06-22T12:07:12;4.25;;;1.90;;
66487;SDS011;53304;54.550;18.526;2023-06-22T12:09:38;5.45;;;2.10;;
66487;SDS011;53304;54.550;18.526;2023-06-22T12:12:03;8.02;;;2.38;;
66487;SDS011;53304;54.550;18.526;2023-06-22T12:14:31;5.20;;;1.80;;
66487;SDS011;53304;54.550;18.526;2023-06-22T12:16:57;5.40;;;2.10;;
66487;SDS011;53304;54.550;18.526;2023-06-22T12:19:24;3.58;;;2.03;;
66487;SDS011;53304;54.550;18.526;2023-06-22T12:21:50;5.07;;;2.03;;
66487;SDS011;53304;54.550;18.526;2023-06-22T12:24:15;4.20;;;2.03;;
66487;SDS011;53304;54.550;18.526;2023-06-22T12:26:43;8.27;;;2.25;;
66487;SDS011;53304;54.550;18.526;2023-06-22T12:29:10;3.95;;;2.00;;
66487;SDS011;53304;54.550;18.526;2023-06-22T12:31:36;4.68;;;1.88;;
66487;SDS011;53304;54.550;18.526;2023-06-22T12:34:04;3.60;;;1.90;;
66487;SDS011;53304;54.550;18.526;2023-06-22T12:36:29;5.30;;;2.13;;
66487;SDS011;53304;54.550;18.526;2023-06-22T12:38:54;5.20;;;2.03;;
66487;SDS011;53304;54.550;18.526;2023-06-22T12:41:25;3.50;;;1.80;;
66487;SDS011;53304;54.550;18.526;2023-06-22T12:43:53;4.47;;;2.00;;
66487;SDS011;53304;54.550;18.526;2023-06-22T12:46:18;4.55;;;1.90;;
66487;SDS011;53304;54.550;18.526;2023-06-22T12:48:44;3.35;;;1.90;;
66487;SDS011;53304;54.550;18.526;2023-06-22T12:51:19;6.28;;;2.00;;
66487;SDS011;53304;54.550;18.526;2023-06-22T12:53:45;3.72;;;2.00;;
66487;SDS011;53304;54.550;18.526;2023-06-22T12:56:13;4.32;;;1.92;;
66487;SDS011;53304;54.550;18.526;2023-06-22T12:58:41;4.97;;;1.90;;
66487;SDS011;53304;54.550;18.526;2023-06-22T13:01:06;4.38;;;1.98;;
66487;SDS011;53304;54.550;18.526;2023-06-22T13:03:32;3.65;;;1.63;;
66487;SDS011;53304;54.550;18.526;2023-06-22T13:05:57;3.33;;;1.70;;
66487;SDS011;53304;54.550;18.526;2023-06-22T13:08:22;3.92;;;1.80;;
66487;SDS011;53304;54.550;18.526;2023-06-22T13:10:48;4.22;;;1.92;;
66487;SDS011;53304;54.550;18.526;2023-06-22T13:13:13;5.63;;;1.73;;
66487;SDS011;53304;54.550;18.526;2023-06-22T13:15:43;4.65;;;1.75;;
66487;SDS011;53304;54.550;18.526;2023-06-22T13:18:09;3.83;;;1.85;;
66487;SDS011;53304;54.550;18.526;2023-06-22T13:20:34;2.95;;;1.75;;
66487;SDS011;53304;54.550;18.526;2023-06-22T13:23:04;3.70;;;1.70;;
66487;SDS011;53304;54.550;18.526;2023-06-22T13:25:30;3.55;;;1.80;;
66487;SDS011;53304;54.550;18.526;2023-06-22T13:27:58;3.20;;;1.75;;
66487;SDS011;53304;54.550;18.526;2023-06-22T13:30:23;7.00;;;2.05;;
66487;SDS011;53304;54.550;18.526;2023-06-22T13:32:51;4.72;;;1.70;;
66487;SDS011;53304;54.550;18.526;2023-06-22T13:35:16;6.35;;;1.80;;
66487;SDS011;53304;54.550;18.526;2023-06-22T13:37:42;3.60;;;2.03;;
66487;SDS011;53304;54.550;18.526;2023-06-22T13:40:12;3.22;;;1.65;;
66487;SDS011;53304;54.550;18.526;2023-06-22T13:42:42;3.25;;;1.40;;
66487;SDS011;53304;54.550;18.526;2023-06-22T13:45:10;3.25;;;1.55;;
66487;SDS011;53304;54.550;18.526;2023-06-22T13:47:36;3.70;;;1.63;;
66487;SDS011;53304;54.550;18.526;2023-06-22T13:50:06;3.00;;;1.77;;
66487;SDS011;53304;54.550;18.526;2023-06-22T13:52:32;2.60;;;1.65;;
66487;SDS011;53304;54.550;18.526;2023-06-22T13:54:59;3.22;;;1.55;;
66487;SDS011;53304;54.550;18.526;2023-06-22T13:57:25;4.03;;;1.80;;
66487;SDS011;53304;54.550;18.526;2023-06-22T13:59:53;3.13;;;1.60;;
66487;SDS011;53304;54.550;18.526;2023-06-22T14:02:20;4.35;;;1.80;;
66487;SDS011;53304;54.550;18.526;2023-06-22T14:04:46;4.20;;;1.85;;
66487;SDS011;53304;54.550;18.526;2023-06-22T14:07:13;3.67;;;1.70;;
66487;SDS011;53304;54.550;18.526;2023-06-22T14:09:39;4.05;;;1.70;;
66487;SDS011;53304;54.550;18.526;2023-06-22T14:12:07;2.78;;;1.58;;
66487;SDS011;53304;54.550;18.526;2023-06-22T14:14:35;3.92;;;1.98;;
66487;SDS011;53304;54.550;18.526;2023-06-22T14:17:03;3.47;;;1.75;;
66487;SDS011;53304;54.550;18.526;2023-06-22T14:19:29;3.30;;;1.80;;
66487;SDS011;53304;54.550;18.526;2023-06-22T14:21:57;4.40;;;1.80;;
66487;SDS011;53304;54.550;18.526;2023-06-22T14:24:24;2.65;;;1.50;;
66487;SDS011;53304;54.550;18.526;2023-06-22T14:26:50;3.47;;;1.70;;
66487;SDS011;53304;54.550;18.526;2023-06-22T14:29:20;3.40;;;1.80;;
66487;SDS011;53304;54.550;18.526;2023-06-22T14:31:49;3.80;;;1.80;;
66487;SDS011;53304;54.550;18.526;2023-06-22T14:34:20;3.10;;;1.75;;
66487;SDS011;53304;54.550;18.526;2023-06-22T14:36:48;4.07;;;1.40;;
66487;SDS011;53304;54.550;18.526;2023-06-22T14:39:15;3.75;;;1.63;;
66487;SDS011;53304;54.550;18.526;2023-06-22T14:41:43;4.22;;;1.98;;
66487;SDS011;53304;54.550;18.526;2023-06-22T14:44:08;3.42;;;1.75;;
66487;SDS011;53304;54.550;18.526;2023-06-22T14:46:36;3.63;;;1.70;;
66487;SDS011;53304;54.550;18.526;2023-06-22T14:49:01;2.88;;;1.42;;
66487;SDS011;53304;54.550;18.526;2023-06-22T14:51:27;3.10;;;1.63;;